sensor_id;sensor_type;location;lat;lon;timestamp;pressure;altitude;pressure_sealevel;temperature;humidity
66742;BME280;53654;54.152;19.432;2023-07-24T00:00:39;100597.21;;;16.36;90.46
66742;BME280;53654;54.152;19.432;2023-07-24T00:03:28;100603.54;;;16.31;90.48
66742;BME280;53654;54.152;19.432;2023-07-24T00:05:59;100603.33;;;16.32;90.97
66742;BME280;53654;54.152;19.432;2023-07-24T00:08:27;100592.92;;;16.33;91.18
66742;BME280;53654;54.152;19.432;2023-07-24T00:10:55;100593.99;;;16.32;91.13
66742;BME280;53654;54.152;19.432;2023-07-24T00:13:23;100590.25;;;16.29;91.07
66742;BME280;53654;54.152;19.432;2023-07-24T00:15:52;100586.85;;;16.25;90.87
66742;BME280;53654;54.152;19.432;2023-07-24T00:18:20;100585.08;;;16.20;91.27
66742;BME280;53654;54.152;19.432;2023-07-24T00:20:48;100575.59;;;16.15;91.64
66742;BME280;53654;54.152;19.432;2023-07-24T00:23:16;100573.89;;;16.08;92.22
66742;BME280;53654;54.152;19.432;2023-07-24T00:25:44;100569.13;;;16.03;92.49
66742;BME280;53654;54.152;19.432;2023-07-24T00:28:12;100574.75;;;15.98;92.45
66742;BME280;53654;54.152;19.432;2023-07-24T00:30:42;100581.23;;;15.94;92.52
66742;BME280;53654;54.152;19.432;2023-07-24T00:33:10;100581.56;;;15.89;92.50
66742;BME280;53654;54.152;19.432;2023-07-24T00:35:38;100579.09;;;15.84;92.63
66742;BME280;53654;54.152;19.432;2023-07-24T00:38:08;100584.13;;;15.81;92.52
66742;BME280;53654;54.152;19.432;2023-07-24T00:40:36;100581.92;;;15.78;92.47
66742;BME280;53654;54.152;19.432;2023-07-24T00:43:05;100585.04;;;15.74;92.45
66742;BME280;53654;54.152;19.432;2023-07-24T00:45:35;100581.17;;;15.74;92.47
66742;BME280;53654;54.152;19.432;2023-07-24T00:48:04;100578.39;;;15.73;92.83
66742;BME280;53654;54.152;19.432;2023-07-24T00:50:32;100575.54;;;15.69;92.59
66742;BME280;53654;54.152;19.432;2023-07-24T00:53:01;100572.77;;;15.67;92.54
66742;BME280;53654;54.152;19.432;2023-07-24T00:55:29;100570.20;;;15.65;92.38
66742;BME280;53654;54.152;19.432;2023-07-24T00:57:58;100567.88;;;15.61;92.43
66742;BME280;53654;54.152;19.432;2023-07-24T01:00:27;100569.64;;;15.61;92.54
66742;BME280;53654;54.152;19.432;2023-07-24T01:02:56;100567.90;;;15.60;92.75
66742;BME280;53654;54.152;19.432;2023-07-24T01:05:25;100566.88;;;15.58;92.74
66742;BME280;53654;54.152;19.432;2023-07-24T01:07:53;100567.06;;;15.58;92.64
66742;BME280;53654;54.152;19.432;2023-07-24T01:10:22;100564.79;;;15.58;92.38
66742;BME280;53654;54.152;19.432;2023-07-24T01:12:59;100567.27;;;15.56;92.36
66742;BME280;53654;54.152;19.432;2023-07-24T01:15:31;100568.74;;;15.54;92.38
66742;BME280;53654;54.152;19.432;2023-07-24T01:18:08;100566.69;;;15.52;92.32
66742;BME280;53654;54.152;19.432;2023-07-24T01:20:43;100564.64;;;15.50;92.48
66742;BME280;53654;54.152;19.432;2023-07-24T01:25:56;100559.27;;;15.47;92.60
66742;BME280;53654;54.152;19.432;2023-07-24T01:28:26;100556.89;;;15.45;92.65
66742;BME280;53654;54.152;19.432;2023-07-24T01:30:55;100554.06;;;15.45;92.57
66742;BME280;53654;54.152;19.432;2023-07-24T01:33:24;100555.13;;;15.45;92.55
66742;BME280;53654;54.152;19.432;2023-07-24T01:35:55;100560.58;;;15.45;92.50
66742;BME280;53654;54.152;19.432;2023-07-24T01:38:25;100556.38;;;15.44;92.31
66742;BME280;53654;54.152;19.432;2023-07-24T01:40:54;100555.25;;;15.47;92.48
66742;BME280;53654;54.152;19.432;2023-07-24T01:43:24;100549.48;;;15.46;92.13
66742;BME280;53654;54.152;19.432;2023-07-24T01:45:55;100547.86;;;15.42;92.18
66742;BME280;53654;54.152;19.432;2023-07-24T01:48:24;100549.52;;;15.39;92.22
66742;BME280;53654;54.152;19.432;2023-07-24T01:50:52;100546.63;;;15.36;92.05
66742;BME280;53654;54.152;19.432;2023-07-24T01:53:20;100548.42;;;15.35;91.96
66742;BME280;53654;54.152;19.432;2023-07-24T01:55:48;100545.51;;;15.33;91.98
66742;BME280;53654;54.152;19.432;2023-07-24T01:58:17;100541.45;;;15.33;91.95
66742;BME280;53654;54.152;19.432;2023-07-24T02:00:45;100546.70;;;15.33;91.77
66742;BME280;53654;54.152;19.432;2023-07-24T02:03:13;100542.36;;;15.32;91.57
66742;BME280;53654;54.152;19.432;2023-07-24T02:05:49;100538.54;;;15.31;91.58
66742;BME280;53654;54.152;19.432;2023-07-24T02:08:18;100538.45;;;15.28;91.55
66742;BME280;53654;54.152;19.432;2023-07-24T02:10:49;100535.08;;;15.29;91.56
66742;BME280;53654;54.152;19.432;2023-07-24T02:13:18;100524.73;;;15.28;91.59
66742;BME280;53654;54.152;19.432;2023-07-24T02:15:49;100525.98;;;15.28;91.60
66742;BME280;53654;54.152;19.432;2023-07-24T02:18:18;100527.16;;;15.24;91.58
66742;BME280;53654;54.152;19.432;2023-07-24T02:20:50;100528.51;;;15.20;91.77
66742;BME280;53654;54.152;19.432;2023-07-24T02:23:18;100529.13;;;15.17;91.87
66742;BME280;53654;54.152;19.432;2023-07-24T02:25:50;100527.27;;;15.14;91.81
66742;BME280;53654;54.152;19.432;2023-07-24T02:28:20;100530.30;;;15.13;91.86
66742;BME280;53654;54.152;19.432;2023-07-24T02:30:48;100538.04;;;15.12;91.97
66742;BME280;53654;54.152;19.432;2023-07-24T02:33:16;100539.10;;;15.13;91.97
66742;BME280;53654;54.152;19.432;2023-07-24T02:35:44;100538.91;;;15.13;92.09
66742;BME280;53654;54.152;19.432;2023-07-24T02:38:12;100537.52;;;15.12;91.98
66742;BME280;53654;54.152;19.432;2023-07-24T02:40:41;100536.07;;;15.08;92.03
66742;BME280;53654;54.152;19.432;2023-07-24T02:43:09;100532.35;;;15.03;92.11
66742;BME280;53654;54.152;19.432;2023-07-24T02:45:39;100531.27;;;14.99;92.34
66742;BME280;53654;54.152;19.432;2023-07-24T02:48:07;100529.95;;;14.96;92.47
66742;BME280;53654;54.152;19.432;2023-07-24T02:50:35;100531.78;;;14.93;92.65
66742;BME280;53654;54.152;19.432;2023-07-24T02:53:03;100534.59;;;14.93;92.73
66742;BME280;53654;54.152;19.432;2023-07-24T02:55:32;100528.61;;;14.94;92.71
66742;BME280;53654;54.152;19.432;2023-07-24T02:58:00;100522.63;;;14.94;92.76
66742;BME280;53654;54.152;19.432;2023-07-24T03:00:31;100519.11;;;14.94;92.72
66742;BME280;53654;54.152;19.432;2023-07-24T03:02:59;100520.83;;;14.96;92.88
66742;BME280;53654;54.152;19.432;2023-07-24T03:05:28;100516.72;;;14.97;93.16
66742;BME280;53654;54.152;19.432;2023-07-24T03:07:56;100515.39;;;15.01;93.50
66742;BME280;53654;54.152;19.432;2023-07-24T03:10:24;100513.23;;;15.02;93.68
66742;BME280;53654;54.152;19.432;2023-07-24T03:12:52;100513.77;;;15.03;93.56
66742;BME280;53654;54.152;19.432;2023-07-24T03:15:20;100514.77;;;15.04;93.66
66742;BME280;53654;54.152;19.432;2023-07-24T03:17:49;100519.70;;;15.03;93.46
66742;BME280;53654;54.152;19.432;2023-07-24T03:20:19;100519.52;;;15.04;93.23
66742;BME280;53654;54.152;19.432;2023-07-24T03:22:47;100517.95;;;15.03;93.01
66742;BME280;53654;54.152;19.432;2023-07-24T03:25:15;100512.55;;;15.07;93.27
66742;BME280;53654;54.152;19.432;2023-07-24T03:27:43;100507.70;;;15.11;93.51
66742;BME280;53654;54.152;19.432;2023-07-24T03:30:12;100511.98;;;15.14;93.52
66742;BME280;53654;54.152;19.432;2023-07-24T03:32:40;100518.75;;;15.17;93.79
66742;BME280;53654;54.152;19.432;2023-07-24T03:35:08;100532.02;;;15.20;93.83
66742;BME280;53654;54.152;19.432;2023-07-24T03:37:36;100537.48;;;15.20;93.91
66742;BME280;53654;54.152;19.432;2023-07-24T03:40:06;100539.05;;;15.20;94.21
66742;BME280;53654;54.152;19.432;2023-07-24T03:42:34;100538.87;;;15.21;94.54
66742;BME280;53654;54.152;19.432;2023-07-24T03:45:02;100541.63;;;15.22;94.70
66742;BME280;53654;54.152;19.432;2023-07-24T03:47:30;100542.80;;;15.24;94.82
66742;BME280;53654;54.152;19.432;2023-07-24T03:49:59;100533.89;;;15.28;94.78
66742;BME280;53654;54.152;19.432;2023-07-24T03:52:27;100530.63;;;15.31;94.52
66742;BME280;53654;54.152;19.432;2023-07-24T03:54:55;100532.45;;;15.34;94.13
66742;BME280;53654;54.152;19.432;2023-07-24T03:57:23;100537.95;;;15.38;93.75
66742;BME280;53654;54.152;19.432;2023-07-24T03:59:51;100537.29;;;15.42;93.31
66742;BME280;53654;54.152;19.432;2023-07-24T04:02:19;100535.04;;;15.47;92.71
66742;BME280;53654;54.152;19.432;2023-07-24T04:04:47;100535.05;;;15.52;92.48
66742;BME280;53654;54.152;19.432;2023-07-24T04:07:15;100534.09;;;15.61;92.26
66742;BME280;53654;54.152;19.432;2023-07-24T04:09:43;100535.88;;;15.72;92.12
66742;BME280;53654;54.152;19.432;2023-07-24T04:12:12;100533.23;;;15.82;91.69
66742;BME280;53654;54.152;19.432;2023-07-24T04:14:40;100524.54;;;16.05;91.52
66742;BME280;53654;54.152;19.432;2023-07-24T04:17:08;100519.91;;;16.56;90.46
66742;BME280;53654;54.152;19.432;2023-07-24T04:19:36;100513.95;;;17.16;87.92
66742;BME280;53654;54.152;19.432;2023-07-24T04:22:04;100511.05;;;17.71;84.51
66742;BME280;53654;54.152;19.432;2023-07-24T04:24:32;100509.91;;;18.06;81.73
66742;BME280;53654;54.152;19.432;2023-07-24T04:27:00;100509.55;;;18.42;79.37
66742;BME280;53654;54.152;19.432;2023-07-24T04:29:28;100511.19;;;18.57;77.82
66742;BME280;53654;54.152;19.432;2023-07-24T04:31:56;100514.32;;;18.58;76.61
66742;BME280;53654;54.152;19.432;2023-07-24T04:34:24;100519.50;;;18.61;76.71
66742;BME280;53654;54.152;19.432;2023-07-24T04:36:52;100520.64;;;18.75;76.20
66742;BME280;53654;54.152;19.432;2023-07-24T04:39:21;100526.20;;;19.08;76.25
66742;BME280;53654;54.152;19.432;2023-07-24T04:41:49;100529.92;;;19.55;74.39
66742;BME280;53654;54.152;19.432;2023-07-24T04:44:17;100526.48;;;19.89;72.41
66742;BME280;53654;54.152;19.432;2023-07-24T04:46:45;100525.70;;;19.94;71.58
66742;BME280;53654;54.152;19.432;2023-07-24T04:49:13;100526.02;;;19.95;70.93
66742;BME280;53654;54.152;19.432;2023-07-24T04:51:41;100528.31;;;20.02;70.38
66742;BME280;53654;54.152;19.432;2023-07-24T04:54:09;100530.73;;;20.00;70.63
66742;BME280;53654;54.152;19.432;2023-07-24T04:56:37;100531.90;;;19.97;70.76
66742;BME280;53654;54.152;19.432;2023-07-24T04:59:05;100524.70;;;20.00;70.79
66742;BME280;53654;54.152;19.432;2023-07-24T05:01:33;100529.67;;;19.96;70.49
66742;BME280;53654;54.152;19.432;2023-07-24T05:04:01;100524.19;;;19.99;70.53
66742;BME280;53654;54.152;19.432;2023-07-24T05:06:30;100517.16;;;19.95;70.46
66742;BME280;53654;54.152;19.432;2023-07-24T05:08:58;100521.53;;;19.86;70.65
66742;BME280;53654;54.152;19.432;2023-07-24T05:11:26;100524.47;;;19.80;70.67
66742;BME280;53654;54.152;19.432;2023-07-24T05:13:54;100528.19;;;19.76;71.10
66742;BME280;53654;54.152;19.432;2023-07-24T05:16:22;100529.36;;;19.85;70.97
66742;BME280;53654;54.152;19.432;2023-07-24T05:18:51;100525.04;;;19.83;70.50
66742;BME280;53654;54.152;19.432;2023-07-24T05:21:19;100529.28;;;19.83;70.46
66742;BME280;53654;54.152;19.432;2023-07-24T05:23:47;100525.48;;;19.88;70.38
66742;BME280;53654;54.152;19.432;2023-07-24T05:26:15;100515.36;;;19.95;70.23
66742;BME280;53654;54.152;19.432;2023-07-24T05:28:43;100512.33;;;19.99;69.90
66742;BME280;53654;54.152;19.432;2023-07-24T05:31:11;100512.58;;;20.08;69.34
66742;BME280;53654;54.152;19.432;2023-07-24T05:33:39;100513.23;;;20.16;68.79
66742;BME280;53654;54.152;19.432;2023-07-24T05:36:07;100516.13;;;20.25;69.01
66742;BME280;53654;54.152;19.432;2023-07-24T05:38:35;100519.11;;;20.39;69.05
66742;BME280;53654;54.152;19.432;2023-07-24T05:41:03;100514.81;;;20.41;68.09
66742;BME280;53654;54.152;19.432;2023-07-24T05:43:32;100513.46;;;20.35;68.03
66742;BME280;53654;54.152;19.432;2023-07-24T05:46:00;100508.96;;;20.30;68.13
66742;BME280;53654;54.152;19.432;2023-07-24T05:48:28;100512.08;;;20.17;68.45
66742;BME280;53654;54.152;19.432;2023-07-24T05:50:57;100512.38;;;19.98;68.80
66742;BME280;53654;54.152;19.432;2023-07-24T05:53:25;100513.36;;;19.79;69.54
66742;BME280;53654;54.152;19.432;2023-07-24T05:55:57;100519.06;;;19.64;70.51
66742;BME280;53654;54.152;19.432;2023-07-24T05:58:27;100522.40;;;19.57;71.09
66742;BME280;53654;54.152;19.432;2023-07-24T06:00:55;100527.69;;;19.76;71.73
66742;BME280;53654;54.152;19.432;2023-07-24T06:03:24;100521.11;;;20.04;71.27
66742;BME280;53654;54.152;19.432;2023-07-24T06:05:53;100524.43;;;20.18;70.21
66742;BME280;53654;54.152;19.432;2023-07-24T06:08:22;100523.85;;;20.26;69.97
66742;BME280;53654;54.152;19.432;2023-07-24T06:10:50;100523.02;;;20.29;69.69
66742;BME280;53654;54.152;19.432;2023-07-24T06:13:19;100516.58;;;20.23;69.76
66742;BME280;53654;54.152;19.432;2023-07-24T06:15:48;100520.48;;;20.13;70.05
66742;BME280;53654;54.152;19.432;2023-07-24T06:18:17;100516.77;;;20.03;70.27
66742;BME280;53654;54.152;19.432;2023-07-24T06:20:45;100519.55;;;19.90;71.15
66742;BME280;53654;54.152;19.432;2023-07-24T06:23:13;100522.02;;;19.79;72.30
66742;BME280;53654;54.152;19.432;2023-07-24T06:25:42;100517.25;;;19.69;73.14
66742;BME280;53654;54.152;19.432;2023-07-24T06:28:10;100517.04;;;19.62;74.06
66742;BME280;53654;54.152;19.432;2023-07-24T06:30:38;100517.17;;;19.59;74.87
66742;BME280;53654;54.152;19.432;2023-07-24T06:33:06;100515.29;;;19.58;75.26
66742;BME280;53654;54.152;19.432;2023-07-24T06:35:35;100516.48;;;19.55;75.61
66742;BME280;53654;54.152;19.432;2023-07-24T06:38:03;100517.11;;;19.49;76.52
66742;BME280;53654;54.152;19.432;2023-07-24T06:40:31;100517.91;;;19.44;77.14
66742;BME280;53654;54.152;19.432;2023-07-24T06:42:59;100517.76;;;19.43;77.50
66742;BME280;53654;54.152;19.432;2023-07-24T06:45:27;100521.17;;;19.42;77.16
66742;BME280;53654;54.152;19.432;2023-07-24T06:47:55;100519.68;;;19.44;78.09
66742;BME280;53654;54.152;19.432;2023-07-24T06:50:24;100521.44;;;19.51;77.66
66742;BME280;53654;54.152;19.432;2023-07-24T06:52:52;100519.11;;;19.52;76.83
66742;BME280;53654;54.152;19.432;2023-07-24T06:55:21;100517.48;;;19.53;76.70
66742;BME280;53654;54.152;19.432;2023-07-24T06:57:49;100516.62;;;19.56;76.61
66742;BME280;53654;54.152;19.432;2023-07-24T07:00:18;100519.09;;;19.60;76.55
66742;BME280;53654;54.152;19.432;2023-07-24T07:02:46;100518.23;;;19.63;76.71
66742;BME280;53654;54.152;19.432;2023-07-24T07:05:14;100519.20;;;19.69;77.18
66742;BME280;53654;54.152;19.432;2023-07-24T07:07:42;100521.50;;;19.72;77.16
66742;BME280;53654;54.152;19.432;2023-07-24T07:10:10;100525.45;;;19.75;76.75
66742;BME280;53654;54.152;19.432;2023-07-24T07:12:38;100524.97;;;19.77;76.54
66742;BME280;53654;54.152;19.432;2023-07-24T07:15:07;100526.10;;;19.83;76.05
66742;BME280;53654;54.152;19.432;2023-07-24T07:17:35;100525.19;;;19.87;75.69
66742;BME280;53654;54.152;19.432;2023-07-24T07:20:03;100522.75;;;19.93;76.37
66742;BME280;53654;54.152;19.432;2023-07-24T07:22:32;100520.75;;;19.97;76.03
66742;BME280;53654;54.152;19.432;2023-07-24T07:25:00;100522.06;;;20.03;75.74
66742;BME280;53654;54.152;19.432;2023-07-24T07:27:28;100521.30;;;20.07;75.55
66742;BME280;53654;54.152;19.432;2023-07-24T07:29:56;100518.63;;;20.11;75.67
66742;BME280;53654;54.152;19.432;2023-07-24T07:32:24;100516.73;;;20.17;75.40
66742;BME280;53654;54.152;19.432;2023-07-24T07:34:52;100511.55;;;20.21;74.55
66742;BME280;53654;54.152;19.432;2023-07-24T07:37:21;100515.30;;;20.27;73.82
66742;BME280;53654;54.152;19.432;2023-07-24T07:39:49;100510.98;;;20.32;73.26
66742;BME280;53654;54.152;19.432;2023-07-24T07:42:17;100506.52;;;20.36;73.25
66742;BME280;53654;54.152;19.432;2023-07-24T07:44:46;100506.14;;;20.44;72.77
66742;BME280;53654;54.152;19.432;2023-07-24T07:47:14;100512.25;;;20.52;72.72
66742;BME280;53654;54.152;19.432;2023-07-24T07:49:42;100507.59;;;20.59;71.87
66742;BME280;53654;54.152;19.432;2023-07-24T07:52:10;100507.12;;;20.65;71.18
66742;BME280;53654;54.152;19.432;2023-07-24T07:54:39;100505.41;;;20.74;71.19
66742;BME280;53654;54.152;19.432;2023-07-24T07:57:07;100507.68;;;20.81;70.84
66742;BME280;53654;54.152;19.432;2023-07-24T07:59:35;100513.03;;;20.94;71.46
66742;BME280;53654;54.152;19.432;2023-07-24T08:02:03;100516.55;;;21.07;71.14
66742;BME280;53654;54.152;19.432;2023-07-24T08:04:32;100512.77;;;21.21;70.30
66742;BME280;53654;54.152;19.432;2023-07-24T08:07:00;100513.45;;;21.34;70.24
66742;BME280;53654;54.152;19.432;2023-07-24T08:09:28;100516.95;;;21.44;70.06
66742;BME280;53654;54.152;19.432;2023-07-24T08:11:56;100521.84;;;21.52;69.10
66742;BME280;53654;54.152;19.432;2023-07-24T08:14:24;100521.59;;;21.59;69.32
66742;BME280;53654;54.152;19.432;2023-07-24T08:16:52;100516.06;;;21.69;68.99
66742;BME280;53654;54.152;19.432;2023-07-24T08:19:21;100516.04;;;21.81;67.83
66742;BME280;53654;54.152;19.432;2023-07-24T08:21:49;100513.70;;;21.94;66.57
66742;BME280;53654;54.152;19.432;2023-07-24T08:24:18;100511.98;;;22.08;65.20
66742;BME280;53654;54.152;19.432;2023-07-24T08:26:46;100504.61;;;22.21;64.36
66742;BME280;53654;54.152;19.432;2023-07-24T08:29:14;100497.23;;;22.32;64.33
66742;BME280;53654;54.152;19.432;2023-07-24T08:31:42;100497.55;;;22.41;62.97
66742;BME280;53654;54.152;19.432;2023-07-24T08:34:11;100490.98;;;22.44;61.58
66742;BME280;53654;54.152;19.432;2023-07-24T08:36:40;100484.27;;;22.46;61.23
66742;BME280;53654;54.152;19.432;2023-07-24T08:39:08;100484.17;;;22.50;60.96
66742;BME280;53654;54.152;19.432;2023-07-24T08:41:37;100488.67;;;22.55;60.20
66742;BME280;53654;54.152;19.432;2023-07-24T08:44:07;100493.96;;;22.59;59.20
66742;BME280;53654;54.152;19.432;2023-07-24T08:46:36;100490.14;;;22.60;59.56
66742;BME280;53654;54.152;19.432;2023-07-24T08:49:13;100490.91;;;22.59;59.65
66742;BME280;53654;54.152;19.432;2023-07-24T08:51:43;100487.89;;;22.59;60.07
66742;BME280;53654;54.152;19.432;2023-07-24T08:54:12;100486.33;;;22.64;59.82
66742;BME280;53654;54.152;19.432;2023-07-24T08:56:41;100479.42;;;22.69;58.86
66742;BME280;53654;54.152;19.432;2023-07-24T08:59:09;100474.63;;;22.72;58.70
66742;BME280;53654;54.152;19.432;2023-07-24T09:01:38;100474.33;;;22.76;58.68
66742;BME280;53654;54.152;19.432;2023-07-24T09:04:06;100466.67;;;22.83;59.76
66742;BME280;53654;54.152;19.432;2023-07-24T09:06:34;100461.48;;;22.89;59.73
66742;BME280;53654;54.152;19.432;2023-07-24T09:09:14;100452.80;;;22.97;59.30
66742;BME280;53654;54.152;19.432;2023-07-24T09:11:51;100449.41;;;23.05;58.93
66742;BME280;53654;54.152;19.432;2023-07-24T09:14:24;100448.98;;;23.17;58.68
66742;BME280;53654;54.152;19.432;2023-07-24T09:17:04;100445.42;;;23.28;57.95
66742;BME280;53654;54.152;19.432;2023-07-24T09:19:33;100440.02;;;23.34;57.31
66742;BME280;53654;54.152;19.432;2023-07-24T09:22:09;100432.33;;;23.37;57.25
66742;BME280;53654;54.152;19.432;2023-07-24T09:24:48;100426.98;;;23.40;56.92
66742;BME280;53654;54.152;19.432;2023-07-24T09:27:16;100422.92;;;23.45;56.28
66742;BME280;53654;54.152;19.432;2023-07-24T09:29:45;100413.63;;;23.51;55.43
66742;BME280;53654;54.152;19.432;2023-07-24T09:32:21;100411.17;;;23.56;55.34
66742;BME280;53654;54.152;19.432;2023-07-24T09:34:50;100419.20;;;23.64;55.97
66742;BME280;53654;54.152;19.432;2023-07-24T09:37:25;100423.98;;;23.72;55.12
66742;BME280;53654;54.152;19.432;2023-07-24T09:39:54;100424.19;;;23.79;54.71
66742;BME280;53654;54.152;19.432;2023-07-24T09:42:33;100423.33;;;23.81;54.28
66742;BME280;53654;54.152;19.432;2023-07-24T09:45:02;100419.69;;;23.80;54.84
66742;BME280;53654;54.152;19.432;2023-07-24T09:47:31;100419.73;;;23.87;54.81
66742;BME280;53654;54.152;19.432;2023-07-24T09:50:19;100414.40;;;23.82;54.65
66742;BME280;53654;54.152;19.432;2023-07-24T09:52:48;100408.39;;;23.86;55.04
66742;BME280;53654;54.152;19.432;2023-07-24T09:55:21;100406.11;;;23.91;54.69
66742;BME280;53654;54.152;19.432;2023-07-24T09:57:58;100398.20;;;23.92;54.71
66742;BME280;53654;54.152;19.432;2023-07-24T10:00:29;100395.05;;;23.98;54.50
66742;BME280;53654;54.152;19.432;2023-07-24T10:02:59;100394.06;;;24.00;54.52
66742;BME280;53654;54.152;19.432;2023-07-24T10:05:28;100389.50;;;24.01;54.58
66742;BME280;53654;54.152;19.432;2023-07-24T10:07:58;100381.88;;;24.03;54.65
66742;BME280;53654;54.152;19.432;2023-07-24T10:10:27;100385.05;;;24.06;54.64
66742;BME280;53654;54.152;19.432;2023-07-24T10:12:57;100377.78;;;24.11;54.74
66742;BME280;53654;54.152;19.432;2023-07-24T10:15:26;100371.22;;;24.13;54.23
66742;BME280;53654;54.152;19.432;2023-07-24T10:18:07;100363.64;;;24.09;54.21
66742;BME280;53654;54.152;19.432;2023-07-24T10:20:41;100356.20;;;24.11;54.55
66742;BME280;53654;54.152;19.432;2023-07-24T10:23:11;100358.20;;;24.06;54.04
66742;BME280;53654;54.152;19.432;2023-07-24T10:25:45;100350.59;;;24.00;54.34
66742;BME280;53654;54.152;19.432;2023-07-24T10:28:13;100353.50;;;24.01;55.01
66742;BME280;53654;54.152;19.432;2023-07-24T10:30:55;100348.20;;;24.14;55.36
66742;BME280;53654;54.152;19.432;2023-07-24T10:33:24;100344.46;;;24.31;55.70
66742;BME280;53654;54.152;19.432;2023-07-24T10:35:54;100336.67;;;24.55;55.78
66742;BME280;53654;54.152;19.432;2023-07-24T10:38:39;100341.04;;;24.81;54.56
66742;BME280;53654;54.152;19.432;2023-07-24T10:41:09;100341.03;;;25.00;54.35
66742;BME280;53654;54.152;19.432;2023-07-24T10:43:52;100332.75;;;25.20;54.59
66742;BME280;53654;54.152;19.432;2023-07-24T10:46:22;100326.77;;;25.39;53.44
66742;BME280;53654;54.152;19.432;2023-07-24T10:48:51;100318.89;;;25.59;52.87
66742;BME280;53654;54.152;19.432;2023-07-24T10:51:21;100317.14;;;25.77;52.28
66742;BME280;53654;54.152;19.432;2023-07-24T10:53:52;100313.40;;;25.88;51.96
66742;BME280;53654;54.152;19.432;2023-07-24T10:56:21;100297.76;;;25.91;51.71
66742;BME280;53654;54.152;19.432;2023-07-24T10:58:49;100295.17;;;25.94;52.10
66742;BME280;53654;54.152;19.432;2023-07-24T11:01:18;100293.16;;;25.99;52.02
66742;BME280;53654;54.152;19.432;2023-07-24T11:03:46;100298.42;;;26.06;51.73
66742;BME280;53654;54.152;19.432;2023-07-24T11:06:16;100301.55;;;26.02;51.01
66742;BME280;53654;54.152;19.432;2023-07-24T11:08:52;100298.23;;;25.96;51.58
66742;BME280;53654;54.152;19.432;2023-07-24T11:11:20;100295.73;;;25.96;51.24
66742;BME280;53654;54.152;19.432;2023-07-24T11:13:49;100294.95;;;25.92;51.29
66742;BME280;53654;54.152;19.432;2023-07-24T11:16:17;100290.52;;;25.94;52.12
66742;BME280;53654;54.152;19.432;2023-07-24T11:18:49;100285.71;;;25.96;51.21
66742;BME280;53654;54.152;19.432;2023-07-24T11:21:22;100278.46;;;25.97;51.79
66742;BME280;53654;54.152;19.432;2023-07-24T11:23:53;100278.52;;;26.02;50.91
66742;BME280;53654;54.152;19.432;2023-07-24T11:26:24;100278.27;;;26.05;51.04
66742;BME280;53654;54.152;19.432;2023-07-24T11:28:53;100275.50;;;26.13;50.86
66742;BME280;53654;54.152;19.432;2023-07-24T11:31:22;100278.41;;;26.21;50.57
66742;BME280;53654;54.152;19.432;2023-07-24T11:33:51;100275.55;;;26.27;50.22
66742;BME280;53654;54.152;19.432;2023-07-24T11:36:21;100279.20;;;26.33;49.71
66742;BME280;53654;54.152;19.432;2023-07-24T11:38:51;100275.58;;;26.31;49.96
66742;BME280;53654;54.152;19.432;2023-07-24T11:41:19;100275.33;;;26.33;50.45
66742;BME280;53654;54.152;19.432;2023-07-24T11:43:49;100278.27;;;26.32;50.46
66742;BME280;53654;54.152;19.432;2023-07-24T11:46:28;100279.18;;;26.34;50.21
66742;BME280;53654;54.152;19.432;2023-07-24T11:48:57;100284.60;;;26.36;50.47
66742;BME280;53654;54.152;19.432;2023-07-24T11:51:26;100287.92;;;26.39;50.27
66742;BME280;53654;54.152;19.432;2023-07-24T11:54:07;100284.83;;;26.41;50.36
66742;BME280;53654;54.152;19.432;2023-07-24T11:56:36;100281.06;;;26.43;50.45
66742;BME280;53654;54.152;19.432;2023-07-24T11:59:13;100278.80;;;26.47;50.89
66742;BME280;53654;54.152;19.432;2023-07-24T12:01:48;100273.38;;;26.48;50.78
66742;BME280;53654;54.152;19.432;2023-07-24T12:04:17;100271.49;;;26.49;50.90
66742;BME280;53654;54.152;19.432;2023-07-24T12:06:46;100273.20;;;26.50;49.58
66742;BME280;53654;54.152;19.432;2023-07-24T12:09:14;100271.69;;;26.53;49.35
66742;BME280;53654;54.152;19.432;2023-07-24T12:11:43;100266.32;;;26.59;49.57
66742;BME280;53654;54.152;19.432;2023-07-24T12:14:13;100262.30;;;26.65;49.54
66742;BME280;53654;54.152;19.432;2023-07-24T12:16:43;100256.10;;;26.71;48.83
66742;BME280;53654;54.152;19.432;2023-07-24T12:19:11;100258.02;;;26.54;48.79
66742;BME280;53654;54.152;19.432;2023-07-24T12:21:39;100253.77;;;26.34;49.78
66742;BME280;53654;54.152;19.432;2023-07-24T12:24:08;100253.09;;;26.33;49.80
66742;BME280;53654;54.152;19.432;2023-07-24T12:26:36;100252.73;;;26.40;49.91
66742;BME280;53654;54.152;19.432;2023-07-24T12:29:04;100251.50;;;26.49;50.02
66742;BME280;53654;54.152;19.432;2023-07-24T12:31:32;100246.33;;;26.55;49.17
66742;BME280;53654;54.152;19.432;2023-07-24T12:34:01;100242.81;;;26.60;48.61
66742;BME280;53654;54.152;19.432;2023-07-24T12:36:29;100239.46;;;26.64;48.68
66742;BME280;53654;54.152;19.432;2023-07-24T12:38:57;100234.20;;;26.69;48.47
66742;BME280;53654;54.152;19.432;2023-07-24T12:41:25;100229.59;;;26.75;48.60
66742;BME280;53654;54.152;19.432;2023-07-24T12:43:53;100227.18;;;26.78;48.03
66742;BME280;53654;54.152;19.432;2023-07-24T12:46:21;100228.52;;;26.79;48.11
66742;BME280;53654;54.152;19.432;2023-07-24T12:48:49;100224.15;;;26.80;47.73
66742;BME280;53654;54.152;19.432;2023-07-24T12:51:17;100219.67;;;26.76;47.81
66742;BME280;53654;54.152;19.432;2023-07-24T12:53:45;100220.61;;;26.74;47.90